This is the latest recevied weather packets stored in our database for station/object W0DP. If no packets are shown the sender has not sent any weather packets the latest 10 day(s).
| Time | Temp. | Humidity | Pressure | Rain* | Wind** | Luminosity | Snow |
|---|---|---|---|---|---|---|---|
| 1777917616 | 27.78° C | 34% | 1001.6 hPa | 0 mm | - | - | - |
| 1777916416 | 27.22° C | 35% | 1001.7 hPa | 0 mm | - | - | - |
| 1777915216 | 27.22° C | 34% | 1001.8 hPa | 0 mm | - | - | - |
| 1777908637 | 25° C | 45% | 1002.1 hPa | 0 mm | - | - | - |
| 1777906817 | 23.89° C | 45% | 1002.4 hPa | 0 mm | - | - | - |
| 1777906217 | 23.89° C | 46% | 1002.6 hPa | 0 mm | - | - | - |
| 1777902617 | 19.44° C | 52% | 1003.4 hPa | 0 mm | - | - | - |
| 1777898417 | 13.33° C | 69% | 1003.5 hPa | 0 mm | - | - | - |
| 1777896617 | 11.67° C | 75% | 1003.8 hPa | 0 mm | - | - | - |
| 1777888216 | 9.44° C | 73% | 1004.5 hPa | 0 mm | - | - | - |
| 1777885216 | 8.89° C | 72% | 1005 hPa | 0 mm | - | - | - |
| 1777884016 | 9.44° C | 70% | 1005 hPa | 0 mm | - | - | - |
| 1777881616 | 10° C | 68% | 1005.7 hPa | 0 mm | - | - | - |
| 1777878016 | 10.56° C | 66% | 1006.5 hPa | 0 mm | - | - | - |
| 1777877436 | 10° C | 67% | 1006.4 hPa | 0 mm | - | - | - |
| 1777873816 | 11.11° C | 65% | 1007.2 hPa | 0 mm | - | - | - |
| 1777872615 | 11.67° C | 62% | 1007.4 hPa | 0 mm | - | - | - |
| 1777872016 | 11.67° C | 63% | 1007.4 hPa | 0 mm | - | - | - |
| 1777870216 | 12.22° C | 61% | 1007.7 hPa | 0 mm | - | - | - |
| 1777859437 | 17.78° C | 42% | 1008.7 hPa | 0 mm | - | - | - |
| 1777855817 | 21.11° C | 32% | 1008.4 hPa | 0 mm | - | - | - |
| 1777852217 | 23.89° C | 28% | 1008.7 hPa | 0 mm | - | - | - |
| 1777851617 | 24.44° C | 29% | 1008.7 hPa | 0 mm | - | - | - |
| 1777850417 | 24.44° C | 25% | 1008.9 hPa | 0 mm | - | - | - |
| 1777849817 | 25° C | 26% | 1008.8 hPa | 0 mm | - | - | - |
* Rain latest hour (hover to see other rain measurements)
** Current wind speed in m/s (hover to see current wind gust speed)